createdAt,value
2023-03-18T00:00:17.835Z,69.10
2023-03-18T00:02:48.098Z,36.10
2023-03-18T00:05:18.494Z,38.60
2023-03-18T00:07:47.883Z,33.00
2023-03-18T00:10:17.091Z,32.90
2023-03-18T00:12:46.474Z,38.40
2023-03-18T00:15:16.335Z,42.60
2023-03-18T00:17:46.884Z,29.40
2023-03-18T00:20:17.238Z,24.80
2023-03-18T00:22:47.051Z,13.10
2023-03-18T00:25:15.651Z,36.20
2023-03-18T00:27:43.843Z,33.30
2023-03-18T00:30:13.665Z,30.40
2023-03-18T00:32:42.150Z,29.30
2023-03-18T00:35:11.100Z,29.00
2023-03-18T00:37:40.125Z,27.10
2023-03-18T00:40:17.281Z,21.70
2023-03-18T00:42:57.830Z,19.80
2023-03-18T00:45:26.315Z,15.80
2023-03-18T00:47:58.190Z,24.20
2023-03-18T00:50:27.792Z,16.20
2023-03-18T00:52:56.678Z,18.50
2023-03-18T00:55:27.513Z,16.80
2023-03-18T00:57:56.326Z,14.00
2023-03-18T01:00:26.374Z,18.60
2023-03-18T01:02:55.188Z,16.90
2023-03-18T01:05:24.737Z,18.90
2023-03-18T01:07:53.816Z,19.50
2023-03-18T01:10:22.698Z,15.10
2023-03-18T01:12:51.293Z,17.30
2023-03-18T01:15:20.584Z,17.20
2023-03-18T01:17:49.672Z,16.40
2023-03-18T01:20:19.797Z,8.60
2023-03-18T01:22:51.663Z,12.30
2023-03-18T01:25:20.646Z,11.00
2023-03-18T01:27:52.713Z,18.50
2023-03-18T01:30:21.096Z,20.50
2023-03-18T01:32:50.296Z,21.40
2023-03-18T01:35:18.479Z,18.90
2023-03-18T01:37:48.683Z,20.30
2023-03-18T01:40:17.574Z,19.90
2023-03-18T01:43:05.208Z,17.20
2023-03-18T01:45:34.750Z,16.80
2023-03-18T01:48:03.697Z,17.30
2023-03-18T01:50:36.007Z,17.40
2023-03-18T01:53:12.838Z,8.30
2023-03-18T01:55:41.355Z,30.20
2023-03-18T01:58:17.406Z,40.70
2023-03-18T02:00:51.883Z,37.60
2023-03-18T02:03:22.535Z,39.80
2023-03-18T02:05:50.825Z,51.60
2023-03-18T02:08:19.496Z,41.90
2023-03-18T02:10:51.358Z,45.20
2023-03-18T02:13:22.129Z,46.00
2023-03-18T02:15:53.544Z,59.90
2023-03-18T02:18:42.337Z,29.20
2023-03-18T02:21:22.849Z,27.00
2023-03-18T02:24:09.779Z,18.10
2023-03-18T02:26:54.020Z,32.70
2023-03-18T02:29:28.748Z,21.90
2023-03-18T02:38:34.533Z,12.20
2023-03-18T02:41:22.791Z,9.70
2023-03-18T02:43:51.515Z,14.80
2023-03-18T02:46:49.444Z,13.60
2023-03-18T02:49:18.436Z,9.70
2023-03-18T02:51:46.930Z,7.60
2023-03-18T02:54:18.995Z,7.70
2023-03-18T02:56:49.205Z,4.60
2023-03-18T02:59:19.581Z,8.50
2023-03-18T03:01:49.471Z,12.30
2023-03-18T03:04:18.130Z,8.90
2023-03-18T03:06:46.739Z,11.00
2023-03-18T03:09:16.421Z,11.60
2023-03-18T03:11:46.429Z,14.70
2023-03-18T03:14:18.542Z,18.30
2023-03-18T03:16:48.833Z,20.00
2023-03-18T03:19:18.140Z,22.60
2023-03-18T03:21:48.767Z,28.10
2023-03-18T03:24:17.354Z,16.70
2023-03-18T03:26:47.057Z,15.50
2023-03-18T03:29:15.563Z,9.10
2023-03-18T03:31:43.913Z,13.50
2023-03-18T03:34:13.528Z,21.20
2023-03-18T03:36:43.587Z,11.10
2023-03-18T03:39:12.657Z,11.30
2023-03-18T03:41:41.621Z,11.50
2023-03-18T03:44:09.918Z,14.70
2023-03-18T03:46:39.524Z,15.40
2023-03-18T03:49:07.935Z,15.60
2023-03-18T03:51:37.671Z,16.70
2023-03-18T03:54:06.381Z,17.10
2023-03-18T03:56:36.754Z,19.80
2023-03-18T03:59:05.296Z,13.80
2023-03-18T04:01:53.054Z,6.10
2023-03-18T04:04:22.639Z,10.90
2023-03-18T04:06:51.107Z,7.90
2023-03-18T04:09:20.227Z,6.70
2023-03-18T04:11:48.917Z,5.50
2023-03-18T04:14:17.788Z,4.80
2023-03-18T04:16:46.819Z,5.10
2023-03-18T04:19:17.912Z,6.40
2023-03-18T04:21:46.397Z,5.80
2023-03-18T04:24:14.787Z,6.80
2023-03-18T04:26:44.786Z,8.70
2023-03-18T04:29:13.212Z,8.20
2023-03-18T04:31:42.665Z,8.10
2023-03-18T04:34:11.469Z,5.40
2023-03-18T04:36:41.416Z,5.20
2023-03-18T04:39:10.270Z,6.40
2023-03-18T04:41:39.973Z,7.40
2023-03-18T04:44:10.236Z,6.80
2023-03-18T04:46:42.731Z,5.10
2023-03-18T04:49:12.077Z,6.50
2023-03-18T04:51:41.315Z,6.50
2023-03-18T04:54:16.255Z,7.80
2023-03-18T04:56:46.931Z,5.70
2023-03-18T04:59:21.457Z,6.30
2023-03-18T05:01:50.043Z,3.00
2023-03-18T05:04:18.792Z,4.40
2023-03-18T05:06:50.694Z,3.60
2023-03-18T05:09:20.706Z,5.30
2023-03-18T05:11:54.305Z,7.30
2023-03-18T05:14:29.166Z,4.70
2023-03-18T05:16:57.834Z,6.20
2023-03-18T05:19:28.499Z,8.40
2023-03-18T05:22:04.568Z,8.50
2023-03-18T05:24:33.274Z,10.50
2023-03-18T05:27:06.447Z,11.80
2023-03-18T05:29:41.304Z,7.80
2023-03-18T05:32:35.724Z,10.50
2023-03-18T05:35:06.026Z,9.10
2023-03-18T05:37:38.859Z,8.50
2023-03-18T05:40:11.837Z,7.00
2023-03-18T05:42:54.961Z,8.90
2023-03-18T05:45:25.138Z,7.80
2023-03-18T05:47:55.353Z,8.30
2023-03-18T05:50:31.769Z,10.90
2023-03-18T05:53:02.288Z,10.40
2023-03-18T05:55:33.516Z,4.80
2023-03-18T05:58:03.246Z,4.70
2023-03-18T06:00:32.131Z,6.60
2023-03-18T06:03:01.976Z,5.60
2023-03-18T06:05:31.644Z,5.40
2023-03-18T06:08:01.368Z,3.10
2023-03-18T06:10:31.351Z,5.70
2023-03-18T06:13:00.547Z,7.20
2023-03-18T06:15:32.628Z,6.30
2023-03-18T06:18:04.993Z,7.20
2023-03-18T06:20:34.739Z,4.00
2023-03-18T06:23:11.061Z,4.60
2023-03-18T06:25:41.453Z,3.00
2023-03-18T06:28:09.994Z,6.70
2023-03-18T06:30:38.451Z,6.20
2023-03-18T06:33:07.597Z,4.90
2023-03-18T06:35:38.207Z,7.40
2023-03-18T06:38:06.763Z,6.30
2023-03-18T06:40:35.285Z,7.20
2023-03-18T06:43:04.984Z,5.40
2023-03-18T06:45:38.759Z,4.20
2023-03-18T06:48:10.720Z,4.80
2023-03-18T06:50:44.180Z,3.60
2023-03-18T06:53:22.539Z,4.60
2023-03-18T06:55:51.625Z,5.60
2023-03-18T06:58:22.099Z,3.80
2023-03-18T07:01:04.287Z,5.20
2023-03-18T07:03:37.553Z,6.20
2023-03-18T07:06:08.047Z,8.90
2023-03-18T07:08:38.602Z,6.30
2023-03-18T07:11:07.635Z,6.60
2023-03-18T07:13:38.432Z,5.10
2023-03-18T07:16:10.997Z,7.60
2023-03-18T07:18:39.389Z,6.70
2023-03-18T07:21:11.495Z,7.60
2023-03-18T07:23:41.677Z,5.50
2023-03-18T07:26:10.545Z,7.20
2023-03-18T07:28:39.888Z,7.70
2023-03-18T07:31:09.126Z,6.30
2023-03-18T07:33:42.146Z,5.50
2023-03-18T07:36:11.715Z,4.70
2023-03-18T07:38:40.235Z,11.60
2023-03-18T07:41:08.561Z,7.70
2023-03-18T07:43:37.296Z,10.80
2023-03-18T07:46:06.910Z,10.40
2023-03-18T07:48:37.481Z,8.90
2023-03-18T07:51:06.052Z,10.10
2023-03-18T07:53:36.239Z,9.20
2023-03-18T07:56:04.923Z,5.50
2023-03-18T07:58:39.060Z,3.80
2023-03-18T08:01:08.038Z,10.00
2023-03-18T08:03:36.438Z,8.90
2023-03-18T08:06:06.226Z,17.70
2023-03-18T08:08:35.004Z,15.10
2023-03-18T08:11:06.668Z,34.70
2023-03-18T08:13:39.045Z,7.40
2023-03-18T08:16:07.763Z,4.60
2023-03-18T08:18:38.046Z,4.80
2023-03-18T08:21:07.990Z,4.20
2023-03-18T08:23:36.690Z,5.70
2023-03-18T08:26:05.431Z,8.00
2023-03-18T08:28:34.865Z,6.60
2023-03-18T08:31:05.172Z,7.70
2023-03-18T08:33:34.770Z,5.60
2023-03-18T08:36:03.298Z,11.10
2023-03-18T08:38:31.636Z,16.00
2023-03-18T08:41:00.048Z,15.00
2023-03-18T08:43:28.596Z,2.00
2023-03-18T08:45:57.901Z,4.50
2023-03-18T08:56:03.386Z,6.90
2023-03-18T08:58:32.089Z,4.50
2023-03-18T09:01:02.759Z,6.90
2023-03-18T09:03:34.793Z,9.90
2023-03-18T09:06:03.680Z,6.70
2023-03-18T09:08:32.756Z,6.30
2023-03-18T09:11:01.040Z,4.20
2023-03-18T09:13:30.442Z,5.60
2023-03-18T09:16:05.259Z,7.80
2023-03-18T09:18:35.630Z,4.10
2023-03-18T09:21:05.302Z,5.40
2023-03-18T09:23:35.312Z,5.20
2023-03-18T09:26:04.355Z,5.40
2023-03-18T09:28:36.510Z,6.10
2023-03-18T09:31:06.450Z,6.30
2023-03-18T09:33:37.213Z,6.20
2023-03-18T09:36:06.871Z,7.30
2023-03-18T09:38:35.832Z,7.80
2023-03-18T09:41:11.471Z,6.20
2023-03-18T09:43:49.058Z,4.50
2023-03-18T09:46:41.597Z,6.20
2023-03-18T09:49:24.636Z,6.90
2023-03-18T09:52:02.146Z,6.70
2023-03-18T09:55:00.297Z,5.40
2023-03-18T09:57:43.314Z,5.90
2023-03-18T10:00:26.853Z,8.80
2023-03-18T10:02:55.137Z,8.20
2023-03-18T10:05:49.075Z,7.40
2023-03-18T10:08:39.949Z,5.90
2023-03-18T10:11:27.336Z,6.60
2023-03-18T10:16:29.781Z,4.30
2023-03-18T10:18:57.999Z,7.20
2023-03-18T10:21:50.552Z,6.90
2023-03-18T10:24:51.383Z,5.70
2023-03-18T10:27:54.205Z,8.90
2023-03-18T10:30:50.967Z,7.70
2023-03-18T10:33:47.078Z,8.20
2023-03-18T10:36:23.906Z,17.80
2023-03-18T10:38:54.032Z,11.40
2023-03-18T10:41:34.008Z,15.40
2023-03-18T10:44:07.489Z,14.10
2023-03-18T10:46:35.952Z,21.70
2023-03-18T10:49:08.318Z,8.60
2023-03-18T10:51:44.107Z,11.60
2023-03-18T10:54:34.312Z,8.20
2023-03-18T10:57:03.378Z,11.40
2023-03-18T10:59:31.811Z,11.60
2023-03-18T11:02:04.770Z,7.30
2023-03-18T11:04:42.623Z,11.40
2023-03-18T11:07:18.901Z,11.10
2023-03-18T11:09:47.592Z,9.90
2023-03-18T11:12:19.407Z,8.90
2023-03-18T11:14:49.284Z,5.40
2023-03-18T11:17:20.912Z,12.80
2023-03-18T11:19:50.918Z,9.80
2023-03-18T11:22:20.272Z,6.90
2023-03-18T11:25:11.761Z,5.90
2023-03-18T11:27:49.145Z,7.00
2023-03-18T11:30:34.099Z,6.50
2023-03-18T11:33:05.569Z,7.30
2023-03-18T11:35:43.530Z,5.50
2023-03-18T11:38:36.466Z,8.10
2023-03-18T11:41:09.091Z,8.00
2023-03-18T11:43:38.606Z,7.40
2023-03-18T11:46:09.878Z,7.30
2023-03-18T11:48:39.918Z,6.30
2023-03-18T11:51:26.985Z,6.70
2023-03-18T11:54:24.926Z,7.80
2023-03-18T11:56:58.763Z,7.50
2023-03-18T11:59:42.280Z,7.10
2023-03-18T12:02:32.184Z,6.30
2023-03-18T12:05:21.767Z,9.70
2023-03-18T12:08:20.814Z,8.90
2023-03-18T12:11:07.958Z,9.00
2023-03-18T12:13:39.762Z,9.20
2023-03-18T12:16:19.969Z,6.90
2023-03-18T12:19:00.784Z,8.20
2023-03-18T12:21:57.599Z,9.40
2023-03-18T12:24:57.157Z,9.70
2023-03-18T12:27:50.425Z,7.60
2023-03-18T12:30:42.651Z,7.50
2023-03-18T12:33:24.444Z,8.40
2023-03-18T12:36:44.582Z,7.50
2023-03-18T12:39:21.839Z,3.80
2023-03-18T12:42:12.246Z,6.60
2023-03-18T12:45:01.994Z,5.40
2023-03-18T12:47:40.470Z,8.30
2023-03-18T12:50:17.272Z,6.80
2023-03-18T12:52:56.059Z,6.80
2023-03-18T12:55:31.537Z,8.70
2023-03-18T12:58:12.049Z,5.50
2023-03-18T13:00:59.555Z,7.80
2023-03-18T13:03:41.736Z,7.90
2023-03-18T13:06:12.631Z,5.90
2023-03-18T13:08:44.146Z,8.00
2023-03-18T13:11:27.048Z,5.00
2023-03-18T13:13:58.034Z,6.40
2023-03-18T13:16:26.138Z,7.70
2023-03-18T13:18:56.837Z,7.50
2023-03-18T13:21:29.677Z,6.10
2023-03-18T13:24:25.594Z,9.50
2023-03-18T13:27:20.727Z,7.40
2023-03-18T13:30:37.012Z,6.90
2023-03-18T13:33:39.205Z,8.10
2023-03-18T13:36:45.553Z,6.20
2023-03-18T13:39:22.632Z,8.10
2023-03-18T13:42:02.928Z,7.10
2023-03-18T13:44:45.280Z,5.10
2023-03-18T13:47:18.802Z,6.50
2023-03-18T13:49:47.122Z,6.00
2023-03-18T13:52:54.224Z,5.00
2023-03-18T13:55:26.151Z,5.90
2023-03-18T13:58:16.469Z,8.90
2023-03-18T14:00:54.958Z,8.20
2023-03-18T14:03:30.115Z,5.60
2023-03-18T14:06:09.036Z,7.20
2023-03-18T14:08:38.795Z,8.40
2023-03-18T14:11:28.703Z,7.50
2023-03-18T14:14:02.172Z,7.50
2023-03-18T14:16:48.254Z,4.90
2023-03-18T14:19:27.092Z,5.70
2023-03-18T14:22:08.951Z,7.20
2023-03-18T14:27:08.427Z,5.40
2023-03-18T14:29:41.803Z,6.30
2023-03-18T14:32:34.443Z,5.60
2023-03-18T14:35:18.746Z,6.40
2023-03-18T14:38:06.485Z,6.10
2023-03-18T14:40:36.453Z,11.20
2023-03-18T14:43:20.408Z,10.20
2023-03-18T14:45:49.716Z,11.70
2023-03-18T14:48:29.260Z,10.70
2023-03-18T14:50:59.655Z,10.70
2023-03-18T14:53:35.276Z,7.80
2023-03-18T14:56:04.879Z,8.80
2023-03-18T14:58:33.998Z,7.20
2023-03-18T15:01:09.619Z,6.90
2023-03-18T15:03:38.811Z,9.40
2023-03-18T15:06:17.808Z,6.80
2023-03-18T15:08:56.882Z,6.60
2023-03-18T15:11:25.011Z,9.70
2023-03-18T15:14:00.115Z,15.30
2023-03-18T15:16:32.892Z,9.80
2023-03-18T15:19:01.086Z,6.00
2023-03-18T15:21:32.524Z,12.80
2023-03-18T15:24:03.729Z,7.40
2023-03-18T15:26:41.389Z,4.40
2023-03-18T15:29:28.698Z,5.80
2023-03-18T15:32:20.023Z,7.30
2023-03-18T15:35:06.559Z,7.90
2023-03-18T15:37:42.881Z,7.40
2023-03-18T15:40:30.058Z,7.00
2023-03-18T15:43:12.515Z,7.20
2023-03-18T15:45:47.565Z,7.10
2023-03-18T15:48:29.804Z,6.80
2023-03-18T15:51:05.081Z,7.90
2023-03-18T15:53:43.293Z,8.80
2023-03-18T15:56:20.097Z,10.70
2023-03-18T15:58:57.079Z,11.70
2023-03-18T16:01:25.624Z,10.60
2023-03-18T16:03:57.240Z,13.20
2023-03-18T16:06:26.945Z,13.00
2023-03-18T16:08:55.749Z,10.30
2023-03-18T16:11:26.126Z,16.30
2023-03-18T16:13:54.403Z,21.70
2023-03-18T16:16:28.040Z,17.00
2023-03-18T16:18:59.420Z,12.50
2023-03-18T16:21:27.706Z,11.00
2023-03-18T16:23:55.926Z,16.90
2023-03-18T16:26:24.537Z,13.70
2023-03-18T16:28:53.092Z,9.20
2023-03-18T16:31:24.249Z,14.60
2023-03-18T16:33:53.800Z,18.40
2023-03-18T16:36:28.211Z,24.30
2023-03-18T16:38:57.572Z,49.70
2023-03-18T16:41:27.200Z,45.80
2023-03-18T16:43:55.742Z,33.20
2023-03-18T16:46:24.442Z,31.50
2023-03-18T16:48:53.317Z,28.10
2023-03-18T16:51:21.531Z,33.50
2023-03-18T16:53:50.155Z,41.60
2023-03-18T16:56:19.104Z,24.30
2023-03-18T16:58:51.671Z,49.90
2023-03-18T17:01:20.828Z,41.50
2023-03-18T17:03:49.696Z,69.80
2023-03-18T17:06:18.199Z,102.70
2023-03-18T17:08:46.612Z,116.70
2023-03-18T17:11:18.141Z,143.80
2023-03-18T17:13:48.798Z,134.60
2023-03-18T17:16:18.855Z,135.10
2023-03-18T17:18:47.198Z,96.80
2023-03-18T17:21:17.245Z,117.20
2023-03-18T17:23:47.796Z,169.10
2023-03-18T17:26:16.373Z,82.40
2023-03-18T17:28:46.209Z,119.20
2023-03-18T17:31:14.676Z,124.90
2023-03-18T17:33:43.142Z,125.50
2023-03-18T17:36:11.570Z,82.00
2023-03-18T17:38:39.792Z,29.80
2023-03-18T17:41:14.487Z,157.80
2023-03-18T17:43:44.354Z,158.30
2023-03-18T17:46:13.419Z,167.90
2023-03-18T17:48:42.353Z,162.70
2023-03-18T17:51:18.175Z,152.00
2023-03-18T17:53:48.241Z,146.30
2023-03-18T17:56:18.512Z,142.90
2023-03-18T17:58:48.844Z,131.50
2023-03-18T18:01:24.393Z,112.50
2023-03-18T18:03:55.788Z,130.50
2023-03-18T18:06:32.112Z,115.60
2023-03-18T18:09:02.702Z,113.00
2023-03-18T18:11:39.123Z,118.90
2023-03-18T18:14:25.680Z,81.70
2023-03-18T18:17:00.051Z,40.60
2023-03-18T18:19:31.714Z,56.50
2023-03-18T18:22:03.890Z,61.50
2023-03-18T18:27:06.500Z,78.20
2023-03-18T18:29:38.996Z,92.30
2023-03-18T18:32:19.163Z,72.20
2023-03-18T18:37:23.468Z,68.20
2023-03-18T18:39:56.659Z,59.30
2023-03-18T18:42:33.377Z,41.20
2023-03-18T18:45:05.149Z,38.20
2023-03-18T18:47:38.618Z,33.30
2023-03-18T18:50:17.605Z,13.30
2023-03-18T18:52:49.759Z,16.70
2023-03-18T18:55:21.168Z,16.80
2023-03-18T18:57:53.293Z,13.70
2023-03-18T19:00:28.664Z,18.20
2023-03-18T19:10:34.848Z,16.60
2023-03-18T19:15:42.668Z,14.20
2023-03-18T19:18:19.890Z,15.70
2023-03-18T19:20:48.842Z,9.90
2023-03-18T19:23:26.024Z,9.40
2023-03-18T19:25:59.940Z,11.40
2023-03-18T19:28:58.504Z,14.60
2023-03-18T19:31:30.932Z,14.70
2023-03-18T19:34:00.136Z,15.40
2023-03-18T19:36:33.467Z,13.70
2023-03-18T19:39:02.590Z,14.80
2023-03-18T19:41:32.806Z,10.80
2023-03-18T19:44:13.241Z,14.80
2023-03-18T19:46:41.982Z,12.30
2023-03-18T19:49:19.891Z,10.60
2023-03-18T19:51:49.973Z,11.70
2023-03-18T19:54:21.725Z,10.10
2023-03-18T19:56:51.439Z,11.30
2023-03-18T19:59:23.915Z,13.40
2023-03-18T20:01:52.704Z,14.50
2023-03-18T20:04:21.862Z,10.90
2023-03-18T20:06:55.712Z,10.80
2023-03-18T20:09:27.868Z,13.80
2023-03-18T20:11:57.165Z,11.10
2023-03-18T20:14:29.944Z,9.40
2023-03-18T20:17:02.742Z,11.20
2023-03-18T20:19:34.905Z,9.80
2023-03-18T20:24:40.574Z,11.10
2023-03-18T20:27:12.532Z,10.00
2023-03-18T20:29:41.520Z,10.60
2023-03-18T20:32:09.934Z,8.70
2023-03-18T20:34:40.947Z,6.80
2023-03-18T20:37:34.337Z,16.60
2023-03-18T20:42:32.911Z,7.60
2023-03-18T20:45:01.434Z,7.50
2023-03-18T20:47:30.080Z,7.70
2023-03-18T20:50:00.809Z,11.30
2023-03-18T20:52:29.744Z,10.40
2023-03-18T20:54:58.282Z,8.00
2023-03-18T20:57:32.293Z,8.50
2023-03-18T21:00:00.949Z,9.30
2023-03-18T21:02:36.348Z,7.20
2023-03-18T21:05:06.886Z,8.50
2023-03-18T21:07:36.247Z,8.00
2023-03-18T21:10:09.342Z,8.90
2023-03-18T21:12:41.608Z,7.60
2023-03-18T21:15:24.502Z,10.20
2023-03-18T21:17:54.438Z,10.50
2023-03-18T21:20:27.319Z,12.40
2023-03-18T21:22:56.654Z,8.70
2023-03-18T21:25:27.441Z,8.20
2023-03-18T21:27:57.986Z,11.10
2023-03-18T21:30:26.874Z,10.00
2023-03-18T21:32:56.428Z,9.70
2023-03-18T21:35:26.441Z,10.40
2023-03-18T21:37:56.449Z,12.10
2023-03-18T21:40:24.799Z,14.30
2023-03-18T21:42:56.757Z,20.90
2023-03-18T21:45:25.344Z,16.50
2023-03-18T21:47:53.946Z,16.10
2023-03-18T21:50:25.473Z,13.60
2023-03-18T21:52:54.554Z,15.80
2023-03-18T21:55:24.115Z,15.50
2023-03-18T21:57:52.759Z,15.30
2023-03-18T22:00:21.965Z,15.70
2023-03-18T22:03:16.042Z,22.60
2023-03-18T22:05:46.627Z,20.20
2023-03-18T22:08:15.570Z,17.10
2023-03-18T22:10:44.086Z,15.00
2023-03-18T22:13:19.240Z,12.90
2023-03-18T22:15:51.973Z,14.20
2023-03-18T22:18:21.791Z,21.70
2023-03-18T22:20:51.486Z,18.30
2023-03-18T22:23:27.631Z,18.80
2023-03-18T22:25:57.273Z,23.00
2023-03-18T22:28:32.602Z,18.20
2023-03-18T22:31:03.245Z,20.20
2023-03-18T22:33:32.868Z,19.80
2023-03-18T22:36:01.458Z,14.90
2023-03-18T22:38:31.950Z,13.90
2023-03-18T22:41:05.439Z,18.10
2023-03-18T22:43:36.300Z,23.20
2023-03-18T22:46:06.895Z,14.60
2023-03-18T22:48:36.922Z,18.00
2023-03-18T22:51:05.728Z,18.30
2023-03-18T22:53:40.769Z,20.90
2023-03-18T22:56:13.941Z,15.30
2023-03-18T22:58:42.216Z,15.70
2023-03-18T23:01:18.905Z,17.00
2023-03-18T23:03:47.831Z,17.90
2023-03-18T23:06:21.085Z,21.50
2023-03-18T23:08:50.314Z,20.50
2023-03-18T23:11:18.847Z,17.80
2023-03-18T23:13:50.205Z,22.00
2023-03-18T23:16:21.054Z,21.40
2023-03-18T23:18:50.055Z,20.10
2023-03-18T23:21:23.320Z,18.50
2023-03-18T23:23:52.762Z,19.30
2023-03-18T23:26:22.279Z,17.70
2023-03-18T23:36:16.102Z,17.50
2023-03-18T23:38:44.660Z,20.40
2023-03-18T23:41:13.216Z,20.00
2023-03-18T23:43:51.024Z,18.70
2023-03-18T23:46:19.587Z,21.10
2023-03-18T23:48:48.293Z,21.10
2023-03-18T23:51:17.070Z,23.70
2023-03-18T23:53:46.202Z,22.30
2023-03-18T23:56:17.525Z,22.20
2023-03-18T23:58:47.023Z,20.30
